This is the latest recevied weather packets stored in our database for station/object N5PRN. If no packets are shown the sender has not sent any weather packets the latest 10 day(s).
| Time | Temp. | Humidity | Pressure | Rain* | Wind** | Luminosity | Snow |
|---|---|---|---|---|---|---|---|
| 1777507007 | 19.44° C | 96% | 1010.5 hPa | 1.78 mm | - | 2 W/m² | - |
| 1777506704 | 19.44° C | 96% | 1010.6 hPa | 0 mm | - | 1 W/m² | - |
| 1777502152 | 19.44° C | 96% | 1010.4 hPa | 0 mm | - | 33 W/m² | - |
| 1777498212 | 20° C | 95% | 1011.7 hPa | 27.69 mm | - | 21 W/m² | - |
| 1777497606 | 20.56° C | 94% | 1011.3 hPa | 19.81 mm | - | 16 W/m² | - |
| 1777496392 | 22.78° C | 94% | 1010.9 hPa | 1.27 mm | - | 1 W/m² | - |
| 1777496089 | 24.44° C | 94% | 1010.8 hPa | 0 mm | - | 32 W/m² | - |
| 1777492146 | 26.67° C | 87% | 1010.9 hPa | 0 mm | - | 66 W/m² | - |
| 1777491539 | 26.67° C | 86% | 1011.1 hPa | 0 mm | - | 52 W/m² | - |
| 1777491237 | 27.22° C | 85% | 1010.9 hPa | 0 mm | - | 124 W/m² | - |
| 1777490933 | 27.78° C | 84% | 1010.9 hPa | 0 mm | - | 105 W/m² | - |
| 1777490629 | 27.78° C | 84% | 1011 hPa | 0 mm | - | 220 W/m² | - |
| 1777490325 | 27.78° C | 84% | 1011.1 hPa | 0 mm | - | 269 W/m² | - |
| 1777490023 | 27.78° C | 83% | 1010.9 hPa | 0 mm | - | 295 W/m² | - |
| 1777487904 | 28.33° C | 80% | 1011.5 hPa | 0 mm | - | 337 W/m² | - |
| 1777487602 | 28.33° C | 81% | 1011.6 hPa | 0 mm | - | 334 W/m² | - |
| 1777487299 | 27.78° C | 82% | 1011.6 hPa | 0 mm | - | 367 W/m² | - |
| 1777486996 | 27.78° C | 82% | 1011.8 hPa | 0 mm | - | 219 W/m² | - |
| 1777486692 | 27.78° C | 82% | 1012 hPa | 0 mm | - | 180 W/m² | - |
| 1777486390 | 28.33° C | 82% | 1012.2 hPa | 0 mm | - | 203 W/m² | - |
| 1777485479 | 28.33° C | 81% | 1012.1 hPa | 0 mm | - | 326 W/m² | - |
| 1777484872 | 27.78° C | 82% | 1012.4 hPa | 0 mm | - | 558 W/m² | - |
| 1777484265 | 27.22° C | 83% | 1012.5 hPa | 0 mm | - | 248 W/m² | - |
| 1777483658 | 27.22° C | 82% | 1012.6 hPa | 0 mm | - | 212 W/m² | - |
| 1777483354 | 27.78° C | 84% | 1012.7 hPa | 0 mm | - | 173 W/m² | - |
* Rain latest hour (hover to see other rain measurements)
** Current wind speed in m/s (hover to see current wind gust speed)